sensor_id;sensor_type;location;lat;lon;timestamp;temperature;humidity
20672;DHT22;10495;50.922;4.760;2023-04-01T00:00:54;11.80;92.20
20672;DHT22;10495;50.922;4.760;2023-04-01T00:03:21;11.70;92.20
20672;DHT22;10495;50.922;4.760;2023-04-01T00:05:48;11.60;92.70
20672;DHT22;10495;50.922;4.760;2023-04-01T00:08:14;11.70;92.40
20672;DHT22;10495;50.922;4.760;2023-04-01T00:10:40;11.60;92.50
20672;DHT22;10495;50.922;4.760;2023-04-01T00:13:06;11.60;92.70
20672;DHT22;10495;50.922;4.760;2023-04-01T00:15:32;11.70;92.50
20672;DHT22;10495;50.922;4.760;2023-04-01T00:17:57;11.80;92.50
20672;DHT22;10495;50.922;4.760;2023-04-01T00:20:24;11.70;92.90
20672;DHT22;10495;50.922;4.760;2023-04-01T00:22:50;11.80;92.70
20672;DHT22;10495;50.922;4.760;2023-04-01T00:25:16;11.80;92.60
20672;DHT22;10495;50.922;4.760;2023-04-01T00:27:42;11.90;92.50
20672;DHT22;10495;50.922;4.760;2023-04-01T00:30:08;11.90;92.20
20672;DHT22;10495;50.922;4.760;2023-04-01T00:32:34;11.80;92.50
20672;DHT22;10495;50.922;4.760;2023-04-01T00:35:00;11.60;92.60
20672;DHT22;10495;50.922;4.760;2023-04-01T00:37:27;11.70;92.80
20672;DHT22;10495;50.922;4.760;2023-04-01T00:39:53;11.80;92.60
20672;DHT22;10495;50.922;4.760;2023-04-01T00:42:19;11.80;92.60
20672;DHT22;10495;50.922;4.760;2023-04-01T00:44:52;11.70;92.80
20672;DHT22;10495;50.922;4.760;2023-04-01T00:47:18;11.90;92.40
20672;DHT22;10495;50.922;4.760;2023-04-01T00:49:47;12.00;92.20
20672;DHT22;10495;50.922;4.760;2023-04-01T00:52:21;11.90;92.20
20672;DHT22;10495;50.922;4.760;2023-04-01T00:54:50;11.50;92.90
20672;DHT22;10495;50.922;4.760;2023-04-01T00:57:30;11.80;92.70
20672;DHT22;10495;50.922;4.760;2023-04-01T00:59:56;11.80;92.40
20672;DHT22;10495;50.922;4.760;2023-04-01T01:02:23;11.80;92.70
20672;DHT22;10495;50.922;4.760;2023-04-01T01:04:48;11.90;92.50
20672;DHT22;10495;50.922;4.760;2023-04-01T01:15:27;11.70;92.90
20672;DHT22;10495;50.922;4.760;2023-04-01T01:18:31;11.90;92.80
20672;DHT22;10495;50.922;4.760;2023-04-01T01:26:53;12.00;92.50
20672;DHT22;10495;50.922;4.760;2023-04-01T01:36:49;12.00;92.30
20672;DHT22;10495;50.922;4.760;2023-04-01T01:39:18;11.90;92.50
20672;DHT22;10495;50.922;4.760;2023-04-01T01:41:47;11.80;92.40
20672;DHT22;10495;50.922;4.760;2023-04-01T01:44:15;11.90;92.40
20672;DHT22;10495;50.922;4.760;2023-04-01T01:46:43;11.90;92.50
20672;DHT22;10495;50.922;4.760;2023-04-01T01:49:11;11.80;92.50
20672;DHT22;10495;50.922;4.760;2023-04-01T01:51:38;11.90;92.40
20672;DHT22;10495;50.922;4.760;2023-04-01T01:54:05;11.90;92.40
20672;DHT22;10495;50.922;4.760;2023-04-01T01:56:31;12.10;92.10
20672;DHT22;10495;50.922;4.760;2023-04-01T01:59:04;12.10;92.00
20672;DHT22;10495;50.922;4.760;2023-04-01T02:01:33;12.10;91.90
20672;DHT22;10495;50.922;4.760;2023-04-01T02:04:00;12.10;91.90
20672;DHT22;10495;50.922;4.760;2023-04-01T02:06:30;11.90;92.20
20672;DHT22;10495;50.922;4.760;2023-04-01T02:09:01;11.80;92.20
20672;DHT22;10495;50.922;4.760;2023-04-01T02:11:51;11.90;92.30
20672;DHT22;10495;50.922;4.760;2023-04-01T02:14:21;11.90;92.10
20672;DHT22;10495;50.922;4.760;2023-04-01T02:19:29;11.70;92.30
20672;DHT22;10495;50.922;4.760;2023-04-01T02:22:00;11.80;92.30
20672;DHT22;10495;50.922;4.760;2023-04-01T02:24:28;11.80;92.60
20672;DHT22;10495;50.922;4.760;2023-04-01T02:26:55;11.60;92.50
20672;DHT22;10495;50.922;4.760;2023-04-01T02:29:23;11.70;92.40
20672;DHT22;10495;50.922;4.760;2023-04-01T02:31:51;11.70;92.40
20672;DHT22;10495;50.922;4.760;2023-04-01T02:34:18;11.90;92.20
20672;DHT22;10495;50.922;4.760;2023-04-01T02:36:44;11.80;92.00
20672;DHT22;10495;50.922;4.760;2023-04-01T02:39:10;11.80;92.30
20672;DHT22;10495;50.922;4.760;2023-04-01T02:41:43;11.80;92.20
20672;DHT22;10495;50.922;4.760;2023-04-01T02:44:11;11.90;92.10
20672;DHT22;10495;50.922;4.760;2023-04-01T02:46:37;12.00;91.80
20672;DHT22;10495;50.922;4.760;2023-04-01T02:49:03;11.90;92.00
20672;DHT22;10495;50.922;4.760;2023-04-01T02:51:29;12.00;91.70
20672;DHT22;10495;50.922;4.760;2023-04-01T02:53:55;11.90;91.80
20672;DHT22;10495;50.922;4.760;2023-04-01T02:56:20;11.80;92.00
20672;DHT22;10495;50.922;4.760;2023-04-01T02:58:47;11.80;92.10
20672;DHT22;10495;50.922;4.760;2023-04-01T03:01:12;11.90;91.80
20672;DHT22;10495;50.922;4.760;2023-04-01T03:03:38;12.00;91.70
20672;DHT22;10495;50.922;4.760;2023-04-01T03:06:08;11.90;91.70
20672;DHT22;10495;50.922;4.760;2023-04-01T03:08:34;11.90;91.70
20672;DHT22;10495;50.922;4.760;2023-04-01T03:11:00;11.80;91.90
20672;DHT22;10495;50.922;4.760;2023-04-01T03:13:26;11.80;91.80
20672;DHT22;10495;50.922;4.760;2023-04-01T03:15:52;11.80;91.80
20672;DHT22;10495;50.922;4.760;2023-04-01T03:18:18;11.80;92.00
20672;DHT22;10495;50.922;4.760;2023-04-01T03:20:44;11.70;92.10
20672;DHT22;10495;50.922;4.760;2023-04-01T03:23:10;11.80;91.90
20672;DHT22;10495;50.922;4.760;2023-04-01T03:25:35;11.70;92.10
20672;DHT22;10495;50.922;4.760;2023-04-01T03:28:01;11.60;92.40
20672;DHT22;10495;50.922;4.760;2023-04-01T03:30:27;11.70;92.20
20672;DHT22;10495;50.922;4.760;2023-04-01T03:32:55;11.70;92.30
20672;DHT22;10495;50.922;4.760;2023-04-01T03:35:21;11.70;92.30
20672;DHT22;10495;50.922;4.760;2023-04-01T03:37:46;11.50;92.70
20672;DHT22;10495;50.922;4.760;2023-04-01T03:40:12;11.50;92.70
20672;DHT22;10495;50.922;4.760;2023-04-01T03:42:38;11.40;92.80
20672;DHT22;10495;50.922;4.760;2023-04-01T03:45:04;11.40;92.90
20672;DHT22;10495;50.922;4.760;2023-04-01T03:47:30;11.40;92.90
20672;DHT22;10495;50.922;4.760;2023-04-01T03:49:56;11.60;92.80
20672;DHT22;10495;50.922;4.760;2023-04-01T03:52:21;11.50;92.70
20672;DHT22;10495;50.922;4.760;2023-04-01T03:54:47;11.50;92.90
20672;DHT22;10495;50.922;4.760;2023-04-01T03:57:13;11.50;92.70
20672;DHT22;10495;50.922;4.760;2023-04-01T03:59:38;11.60;92.70
20672;DHT22;10495;50.922;4.760;2023-04-01T04:02:04;11.60;92.70
20672;DHT22;10495;50.922;4.760;2023-04-01T04:04:31;11.60;92.70
20672;DHT22;10495;50.922;4.760;2023-04-01T04:06:57;11.60;92.80
20672;DHT22;10495;50.922;4.760;2023-04-01T04:09:23;11.60;92.70
20672;DHT22;10495;50.922;4.760;2023-04-01T04:11:49;11.50;92.80
20672;DHT22;10495;50.922;4.760;2023-04-01T04:14:15;11.70;92.60
20672;DHT22;10495;50.922;4.760;2023-04-01T04:16:41;11.80;92.40
20672;DHT22;10495;50.922;4.760;2023-04-01T04:19:07;11.80;92.40
20672;DHT22;10495;50.922;4.760;2023-04-01T04:21:32;11.70;92.50
20672;DHT22;10495;50.922;4.760;2023-04-01T04:23:59;11.70;92.40
20672;DHT22;10495;50.922;4.760;2023-04-01T04:26:25;11.50;92.60
20672;DHT22;10495;50.922;4.760;2023-04-01T04:28:51;11.50;92.70
20672;DHT22;10495;50.922;4.760;2023-04-01T04:31:21;11.30;92.90
20672;DHT22;10495;50.922;4.760;2023-04-01T04:33:48;11.30;92.90
20672;DHT22;10495;50.922;4.760;2023-04-01T04:36:14;11.40;92.90
20672;DHT22;10495;50.922;4.760;2023-04-01T04:38:40;11.60;92.80
20672;DHT22;10495;50.922;4.760;2023-04-01T04:41:10;11.50;92.70
20672;DHT22;10495;50.922;4.760;2023-04-01T04:43:35;11.50;92.70
20672;DHT22;10495;50.922;4.760;2023-04-01T04:46:05;11.50;92.80
20672;DHT22;10495;50.922;4.760;2023-04-01T04:48:31;11.60;92.70
20672;DHT22;10495;50.922;4.760;2023-04-01T04:50:56;11.50;92.80
20672;DHT22;10495;50.922;4.760;2023-04-01T04:53:22;11.60;92.70
20672;DHT22;10495;50.922;4.760;2023-04-01T04:55:49;11.70;92.70
20672;DHT22;10495;50.922;4.760;2023-04-01T04:58:16;11.60;92.60
20672;DHT22;10495;50.922;4.760;2023-04-01T05:00:42;11.60;92.60
20672;DHT22;10495;50.922;4.760;2023-04-01T05:03:08;11.40;93.00
20672;DHT22;10495;50.922;4.760;2023-04-01T05:05:34;11.20;93.30
20672;DHT22;10495;50.922;4.760;2023-04-01T05:08:00;11.30;93.30
20672;DHT22;10495;50.922;4.760;2023-04-01T05:10:25;11.50;93.00
20672;DHT22;10495;50.922;4.760;2023-04-01T05:12:51;11.50;92.80
20672;DHT22;10495;50.922;4.760;2023-04-01T05:15:16;11.50;93.00
20672;DHT22;10495;50.922;4.760;2023-04-01T05:17:42;11.50;93.00
20672;DHT22;10495;50.922;4.760;2023-04-01T05:20:08;11.60;92.80
20672;DHT22;10495;50.922;4.760;2023-04-01T05:22:34;11.80;92.40
20672;DHT22;10495;50.922;4.760;2023-04-01T05:24:59;11.70;92.50
20672;DHT22;10495;50.922;4.760;2023-04-01T05:27:25;11.60;92.80
20672;DHT22;10495;50.922;4.760;2023-04-01T05:29:51;11.50;93.00
20672;DHT22;10495;50.922;4.760;2023-04-01T05:32:16;11.50;92.70
20672;DHT22;10495;50.922;4.760;2023-04-01T05:34:42;11.50;92.70
20672;DHT22;10495;50.922;4.760;2023-04-01T05:37:08;11.40;92.80
20672;DHT22;10495;50.922;4.760;2023-04-01T05:39:39;11.50;92.80
20672;DHT22;10495;50.922;4.760;2023-04-01T05:42:06;11.60;92.70
20672;DHT22;10495;50.922;4.760;2023-04-01T05:44:33;11.60;92.70
20672;DHT22;10495;50.922;4.760;2023-04-01T05:46:58;11.60;92.60
20672;DHT22;10495;50.922;4.760;2023-04-01T05:49:24;11.60;92.80
20672;DHT22;10495;50.922;4.760;2023-04-01T05:51:50;11.60;92.90
20672;DHT22;10495;50.922;4.760;2023-04-01T05:54:16;11.60;92.70
20672;DHT22;10495;50.922;4.760;2023-04-01T05:56:42;11.50;92.70
20672;DHT22;10495;50.922;4.760;2023-04-01T05:59:10;11.60;92.70
20672;DHT22;10495;50.922;4.760;2023-04-01T06:01:36;11.50;92.90
20672;DHT22;10495;50.922;4.760;2023-04-01T06:04:01;11.50;92.90
20672;DHT22;10495;50.922;4.760;2023-04-01T06:06:29;11.60;92.50
20672;DHT22;10495;50.922;4.760;2023-04-01T06:09:04;11.60;92.60
20672;DHT22;10495;50.922;4.760;2023-04-01T06:12:07;11.60;92.50
20672;DHT22;10495;50.922;4.760;2023-04-01T06:25:37;11.50;92.80
20672;DHT22;10495;50.922;4.760;2023-04-01T06:37:20;11.40;93.20
20672;DHT22;10495;50.922;4.760;2023-04-01T06:48:23;11.50;92.80
20672;DHT22;10495;50.922;4.760;2023-04-01T06:53:37;11.40;93.10
20672;DHT22;10495;50.922;4.760;2023-04-01T06:56:15;11.40;93.20
20672;DHT22;10495;50.922;4.760;2023-04-01T06:58:46;11.40;93.00
20672;DHT22;10495;50.922;4.760;2023-04-01T07:01:18;11.40;93.10
20672;DHT22;10495;50.922;4.760;2023-04-01T07:04:09;11.50;93.00
20672;DHT22;10495;50.922;4.760;2023-04-01T07:06:50;11.60;92.90
20672;DHT22;10495;50.922;4.760;2023-04-01T07:09:37;11.50;93.00
20672;DHT22;10495;50.922;4.760;2023-04-01T07:12:15;11.50;93.10
20672;DHT22;10495;50.922;4.760;2023-04-01T07:14:44;11.50;93.10
20672;DHT22;10495;50.922;4.760;2023-04-01T07:17:30;11.60;92.70
20672;DHT22;10495;50.922;4.760;2023-04-01T07:20:05;11.60;92.80
20672;DHT22;10495;50.922;4.760;2023-04-01T07:22:44;11.50;92.80
20672;DHT22;10495;50.922;4.760;2023-04-01T07:25:16;11.50;92.90
20672;DHT22;10495;50.922;4.760;2023-04-01T07:27:43;11.70;92.60
20672;DHT22;10495;50.922;4.760;2023-04-01T07:30:18;11.50;92.80
20672;DHT22;10495;50.922;4.760;2023-04-01T07:33:04;11.50;92.90
20672;DHT22;10495;50.922;4.760;2023-04-01T07:41:00;11.60;92.90
20672;DHT22;10495;50.922;4.760;2023-04-01T07:46:26;11.70;92.50
20672;DHT22;10495;50.922;4.760;2023-04-01T07:49:02;11.60;92.80
20672;DHT22;10495;50.922;4.760;2023-04-01T07:54:18;11.70;92.60
20672;DHT22;10495;50.922;4.760;2023-04-01T07:56:57;11.40;93.10
20672;DHT22;10495;50.922;4.760;2023-04-01T08:20:59;11.80;93.20
20672;DHT22;10495;50.922;4.760;2023-04-01T08:23:36;11.80;93.10
20672;DHT22;10495;50.922;4.760;2023-04-01T08:26:05;12.00;92.80
20672;DHT22;10495;50.922;4.760;2023-04-01T08:28:45;12.00;92.60
20672;DHT22;10495;50.922;4.760;2023-04-01T08:34:42;12.20;92.60
20672;DHT22;10495;50.922;4.760;2023-04-01T08:37:28;12.30;92.70
20672;DHT22;10495;50.922;4.760;2023-04-01T08:45:23;12.20;92.40
20672;DHT22;10495;50.922;4.760;2023-04-01T09:14:08;12.50;92.70
20672;DHT22;10495;50.922;4.760;2023-04-01T09:22:54;12.40;92.50
20672;DHT22;10495;50.922;4.760;2023-04-01T09:28:52;12.60;92.60
20672;DHT22;10495;50.922;4.760;2023-04-01T09:39:37;12.60;92.40
20672;DHT22;10495;50.922;4.760;2023-04-01T09:45:16;12.70;92.60
20672;DHT22;10495;50.922;4.760;2023-04-01T09:53:40;12.70;92.30
20672;DHT22;10495;50.922;4.760;2023-04-01T10:16:14;12.80;92.40
20672;DHT22;10495;50.922;4.760;2023-04-01T10:19:07;12.90;92.10
20672;DHT22;10495;50.922;4.760;2023-04-01T10:21:59;12.80;92.20
20672;DHT22;10495;50.922;4.760;2023-04-01T10:50:16;13.50;91.70
20672;DHT22;10495;50.922;4.760;2023-04-01T11:10:04;13.60;91.20
20672;DHT22;10495;50.922;4.760;2023-04-01T11:12:58;13.70;91.50
20672;DHT22;10495;50.922;4.760;2023-04-01T11:35:27;13.80;90.70
20672;DHT22;10495;50.922;4.760;2023-04-01T11:40:47;13.50;91.70
20672;DHT22;10495;50.922;4.760;2023-04-01T11:46:31;13.60;91.40
20672;DHT22;10495;50.922;4.760;2023-04-01T11:49:27;13.60;91.50
20672;DHT22;10495;50.922;4.760;2023-04-01T11:57:51;13.60;90.70
20672;DHT22;10495;50.922;4.760;2023-04-01T12:08:55;13.30;91.50
20672;DHT22;10495;50.922;4.760;2023-04-01T12:11:32;13.50;91.20
20672;DHT22;10495;50.922;4.760;2023-04-01T12:20:09;13.40;91.40
20672;DHT22;10495;50.922;4.760;2023-04-01T12:25:38;13.80;90.80
20672;DHT22;10495;50.922;4.760;2023-04-01T12:30:58;13.70;90.80
20672;DHT22;10495;50.922;4.760;2023-04-01T12:55:41;13.20;91.00
20672;DHT22;10495;50.922;4.760;2023-04-01T12:58:48;13.00;91.30
20672;DHT22;10495;50.922;4.760;2023-04-01T13:07:06;12.90;91.50
20672;DHT22;10495;50.922;4.760;2023-04-01T13:15:28;13.30;91.40
20672;DHT22;10495;50.922;4.760;2023-04-01T13:21:03;13.50;91.00
20672;DHT22;10495;50.922;4.760;2023-04-01T13:29:14;13.20;90.90
20672;DHT22;10495;50.922;4.760;2023-04-01T13:46:06;13.30;90.70
20672;DHT22;10495;50.922;4.760;2023-04-01T13:54:09;13.10;90.90
20672;DHT22;10495;50.922;4.760;2023-04-01T13:57:05;13.30;91.20
20672;DHT22;10495;50.922;4.760;2023-04-01T14:11:39;13.10;91.50
20672;DHT22;10495;50.922;4.760;2023-04-01T14:14:14;13.20;91.20
20672;DHT22;10495;50.922;4.760;2023-04-01T14:20:44;13.00;91.20
20672;DHT22;10495;50.922;4.760;2023-04-01T14:23:04;13.10;90.90
20672;DHT22;10495;50.922;4.760;2023-04-01T14:28:40;13.10;91.20
20672;DHT22;10495;50.922;4.760;2023-04-01T14:39:35;13.20;91.60
20672;DHT22;10495;50.922;4.760;2023-04-01T14:50:50;13.40;91.60
20672;DHT22;10495;50.922;4.760;2023-04-01T14:55:53;13.50;91.70
20672;DHT22;10495;50.922;4.760;2023-04-01T14:58:22;13.60;91.30
20672;DHT22;10495;50.922;4.760;2023-04-01T15:01:09;13.60;91.50
20672;DHT22;10495;50.922;4.760;2023-04-01T15:03:45;13.60;91.30
20672;DHT22;10495;50.922;4.760;2023-04-01T15:12:17;13.50;90.70
20672;DHT22;10495;50.922;4.760;2023-04-01T15:17:50;13.50;90.70
20672;DHT22;10495;50.922;4.760;2023-04-01T15:23:25;13.60;89.70
20672;DHT22;10495;50.922;4.760;2023-04-01T15:40:15;13.10;90.10
20672;DHT22;10495;50.922;4.760;2023-04-01T15:43:02;13.10;90.10
20672;DHT22;10495;50.922;4.760;2023-04-01T15:45:49;13.20;90.20
20672;DHT22;10495;50.922;4.760;2023-04-01T15:48:30;13.10;89.80
20672;DHT22;10495;50.922;4.760;2023-04-01T15:54:02;13.10;90.30
20672;DHT22;10495;50.922;4.760;2023-04-01T16:02:35;13.10;90.30
20672;DHT22;10495;50.922;4.760;2023-04-01T16:05:24;13.00;90.30
20672;DHT22;10495;50.922;4.760;2023-04-01T16:08:18;12.90;90.30
20672;DHT22;10495;50.922;4.760;2023-04-01T16:11:28;12.90;90.60
20672;DHT22;10495;50.922;4.760;2023-04-01T16:16:58;12.80;90.70
20672;DHT22;10495;50.922;4.760;2023-04-01T16:19:33;12.90;90.30
20672;DHT22;10495;50.922;4.760;2023-04-01T16:22:13;12.80;90.10
20672;DHT22;10495;50.922;4.760;2023-04-01T16:36:12;12.30;91.60
20672;DHT22;10495;50.922;4.760;2023-04-01T16:41:57;12.40;91.30
20672;DHT22;10495;50.922;4.760;2023-04-01T16:44:27;12.40;91.10
20672;DHT22;10495;50.922;4.760;2023-04-01T16:46:56;12.40;91.30
20672;DHT22;10495;50.922;4.760;2023-04-01T16:49:32;12.30;91.30
20672;DHT22;10495;50.922;4.760;2023-04-01T16:54:35;12.40;90.70
20672;DHT22;10495;50.922;4.760;2023-04-01T17:02:38;12.20;91.30
20672;DHT22;10495;50.922;4.760;2023-04-01T17:05:13;12.00;91.40
20672;DHT22;10495;50.922;4.760;2023-04-01T17:08:07;12.10;91.60
20672;DHT22;10495;50.922;4.760;2023-04-01T17:10:56;12.00;91.50
20672;DHT22;10495;50.922;4.760;2023-04-01T17:16:41;12.00;91.80
20672;DHT22;10495;50.922;4.760;2023-04-01T17:22:26;11.90;91.80
20672;DHT22;10495;50.922;4.760;2023-04-01T17:25:04;11.90;91.80
20672;DHT22;10495;50.922;4.760;2023-04-01T17:27:40;12.00;91.90
20672;DHT22;10495;50.922;4.760;2023-04-01T17:46:56;11.60;92.20
20672;DHT22;10495;50.922;4.760;2023-04-01T17:49:34;11.70;92.10
20672;DHT22;10495;50.922;4.760;2023-04-01T17:55:43;11.70;91.90
20672;DHT22;10495;50.922;4.760;2023-04-01T17:58:22;11.80;91.90
20672;DHT22;10495;50.922;4.760;2023-04-01T18:01:13;11.70;92.10
20672;DHT22;10495;50.922;4.760;2023-04-01T18:04:15;11.90;91.90
20672;DHT22;10495;50.922;4.760;2023-04-01T18:12:09;11.90;91.80
20672;DHT22;10495;50.922;4.760;2023-04-01T18:23:14;11.90;91.90
20672;DHT22;10495;50.922;4.760;2023-04-01T18:25:49;11.90;91.90
20672;DHT22;10495;50.922;4.760;2023-04-01T18:31:26;11.70;92.10
20672;DHT22;10495;50.922;4.760;2023-04-01T18:34:06;11.70;92.20
20672;DHT22;10495;50.922;4.760;2023-04-01T18:36:44;11.70;92.00
20672;DHT22;10495;50.922;4.760;2023-04-01T18:39:17;11.70;92.10
20672;DHT22;10495;50.922;4.760;2023-04-01T18:42:19;11.60;92.20
20672;DHT22;10495;50.922;4.760;2023-04-01T18:44:55;11.60;92.20
20672;DHT22;10495;50.922;4.760;2023-04-01T18:47:47;11.70;92.00
20672;DHT22;10495;50.922;4.760;2023-04-01T18:50:41;11.60;92.30
20672;DHT22;10495;50.922;4.760;2023-04-01T18:53:22;11.60;92.10
20672;DHT22;10495;50.922;4.760;2023-04-01T18:56:10;11.60;92.30
20672;DHT22;10495;50.922;4.760;2023-04-01T18:59:15;11.60;92.40
20672;DHT22;10495;50.922;4.760;2023-04-01T19:05:00;11.70;92.20
20672;DHT22;10495;50.922;4.760;2023-04-01T19:10:45;11.70;92.30
20672;DHT22;10495;50.922;4.760;2023-04-01T19:13:24;11.60;92.50
20672;DHT22;10495;50.922;4.760;2023-04-01T19:16:04;11.50;92.40
20672;DHT22;10495;50.922;4.760;2023-04-01T19:21:35;11.40;92.40
20672;DHT22;10495;50.922;4.760;2023-04-01T19:32:23;11.50;92.40
20672;DHT22;10495;50.922;4.760;2023-04-01T19:37:43;11.50;92.50
20672;DHT22;10495;50.922;4.760;2023-04-01T19:45:26;11.40;92.70
20672;DHT22;10495;50.922;4.760;2023-04-01T19:48:04;11.40;92.60
20672;DHT22;10495;50.922;4.760;2023-04-01T19:50:37;11.30;92.60
20672;DHT22;10495;50.922;4.760;2023-04-01T19:53:17;11.50;92.40
20672;DHT22;10495;50.922;4.760;2023-04-01T19:56:33;11.50;92.60
20672;DHT22;10495;50.922;4.760;2023-04-01T20:04:36;11.30;92.90
20672;DHT22;10495;50.922;4.760;2023-04-01T20:07:25;11.40;92.60
20672;DHT22;10495;50.922;4.760;2023-04-01T20:10:15;11.50;92.60
20672;DHT22;10495;50.922;4.760;2023-04-01T20:12:52;11.40;92.40
20672;DHT22;10495;50.922;4.760;2023-04-01T20:15:31;11.40;92.40
20672;DHT22;10495;50.922;4.760;2023-04-01T20:18:02;11.50;92.50
20672;DHT22;10495;50.922;4.760;2023-04-01T20:20:30;11.40;92.70
20672;DHT22;10495;50.922;4.760;2023-04-01T20:25:46;11.50;92.70
20672;DHT22;10495;50.922;4.760;2023-04-01T20:42:27;11.30;93.10
20672;DHT22;10495;50.922;4.760;2023-04-01T20:53:22;11.20;93.30
20672;DHT22;10495;50.922;4.760;2023-04-01T21:01:50;11.30;93.30
20672;DHT22;10495;50.922;4.760;2023-04-01T21:04:34;11.10;93.80
20672;DHT22;10495;50.922;4.760;2023-04-01T21:12:51;11.20;93.90
20672;DHT22;10495;50.922;4.760;2023-04-01T21:23:44;11.20;94.10
20672;DHT22;10495;50.922;4.760;2023-04-01T21:42:39;10.60;95.40
20672;DHT22;10495;50.922;4.760;2023-04-01T21:45:23;10.60;95.40
20672;DHT22;10495;50.922;4.760;2023-04-01T22:04:41;10.60;95.10
20672;DHT22;10495;50.922;4.760;2023-04-01T22:07:19;10.50;95.10
20672;DHT22;10495;50.922;4.760;2023-04-01T22:12:35;10.60;95.00
20672;DHT22;10495;50.922;4.760;2023-04-01T22:20:35;10.50;95.00
20672;DHT22;10495;50.922;4.760;2023-04-01T22:23:18;10.50;95.00
20672;DHT22;10495;50.922;4.760;2023-04-01T22:26:00;10.70;94.70
20672;DHT22;10495;50.922;4.760;2023-04-01T22:31:12;10.40;94.70
20672;DHT22;10495;50.922;4.760;2023-04-01T22:33:51;10.40;94.60
20672;DHT22;10495;50.922;4.760;2023-04-01T22:37:13;10.30;94.80
20672;DHT22;10495;50.922;4.760;2023-04-01T22:40:02;10.30;94.90
20672;DHT22;10495;50.922;4.760;2023-04-01T22:47:59;10.30;94.80
20672;DHT22;10495;50.922;4.760;2023-04-01T22:55:40;10.50;94.70
20672;DHT22;10495;50.922;4.760;2023-04-01T22:58:15;10.30;94.70
20672;DHT22;10495;50.922;4.760;2023-04-01T23:00:45;10.30;95.10
20672;DHT22;10495;50.922;4.760;2023-04-01T23:03:28;10.40;95.00
20672;DHT22;10495;50.922;4.760;2023-04-01T23:06:01;10.30;95.00
20672;DHT22;10495;50.922;4.760;2023-04-01T23:17:21;10.40;94.70
20672;DHT22;10495;50.922;4.760;2023-04-01T23:20:05;10.40;94.50
20672;DHT22;10495;50.922;4.760;2023-04-01T23:38:24;10.30;93.80
20672;DHT22;10495;50.922;4.760;2023-04-01T23:40:53;10.10;93.70
20672;DHT22;10495;50.922;4.760;2023-04-01T23:43:33;10.00;94.00
20672;DHT22;10495;50.922;4.760;2023-04-01T23:46:03;10.00;94.00
20672;DHT22;10495;50.922;4.760;2023-04-01T23:48:42;10.10;94.00
20672;DHT22;10495;50.922;4.760;2023-04-01T23:51:29;10.10;94.00
20672;DHT22;10495;50.922;4.760;2023-04-01T23:54:14;10.10;93.90
20672;DHT22;10495;50.922;4.760;2023-04-01T23:56:45;10.10;94.10
20672;DHT22;10495;50.922;4.760;2023-04-01T23:59:23;10.00;94.00
